createdAt,value
2022-08-05T00:00:20.694Z,94731
2022-08-05T00:03:46.022Z,94731
2022-08-05T00:07:21.912Z,94728
2022-08-05T00:10:36.643Z,94730
2022-08-05T00:14:02.154Z,94728
2022-08-05T00:17:27.271Z,94723
2022-08-05T00:20:52.611Z,94721
2022-08-05T00:24:19.115Z,94722
2022-08-05T00:27:43.214Z,94722
2022-08-05T00:31:08.529Z,94719
2022-08-05T00:34:43.278Z,94721
2022-08-05T00:37:59.171Z,94724
2022-08-05T00:41:24.570Z,94719
2022-08-05T00:44:49.821Z,94717
2022-08-05T00:48:15.124Z,94717
2022-08-05T00:51:50.202Z,94720
2022-08-05T00:55:05.818Z,94721
2022-08-05T00:58:31.137Z,94718
2022-08-05T01:01:56.553Z,94716
2022-08-05T01:05:21.798Z,94712
2022-08-05T01:08:47.535Z,94708
2022-08-05T01:12:18.333Z,94707
2022-08-05T01:15:37.781Z,94705
2022-08-05T01:19:03.093Z,94700
2022-08-05T01:22:28.374Z,94701
2022-08-05T01:25:54.096Z,94699
2022-08-05T01:29:19.052Z,94705
2022-08-05T01:32:45.411Z,94703
2022-08-05T01:36:12.726Z,94699
2022-08-05T01:39:45.957Z,94703
2022-08-05T01:43:01.204Z,94695
2022-08-05T01:46:41.859Z,94693
2022-08-05T01:50:00.066Z,94695
2022-08-05T01:53:17.175Z,94692
2022-08-05T01:58:09.179Z,94687
2022-08-05T02:00:11.756Z,94682
2022-08-05T02:03:34.002Z,94688
2022-08-05T02:06:58.429Z,94686
2022-08-05T02:10:28.068Z,94685
2022-08-05T02:13:53.571Z,94681
2022-08-05T02:17:16.652Z,94679
2022-08-05T02:20:39.675Z,94675
2022-08-05T02:24:04.976Z,94673
2022-08-05T02:27:58.806Z,94675
2022-08-05T02:30:56.534Z,94673
2022-08-05T02:34:20.947Z,94665
2022-08-05T02:37:46.466Z,94660
2022-08-05T02:41:14.834Z,94656
2022-08-05T02:44:36.873Z,94664
2022-08-05T02:48:07.757Z,94664
2022-08-05T02:51:28.329Z,94658
2022-08-05T02:54:52.877Z,94657
2022-08-05T02:58:18.290Z,94652
2022-08-05T03:01:43.750Z,94658
2022-08-05T03:05:08.967Z,94655
2022-08-05T03:08:34.405Z,94650
2022-08-05T03:11:59.758Z,94648
2022-08-05T03:15:16.883Z,94641
2022-08-05T03:18:42.240Z,94647
2022-08-05T03:22:15.904Z,94646
2022-08-05T03:26:04.069Z,94642
2022-08-05T03:28:58.257Z,94641
2022-08-05T03:32:30.757Z,94640
2022-08-05T03:35:49.860Z,94639
2022-08-05T03:39:19.994Z,94635
2022-08-05T03:42:41.715Z,94636
2022-08-05T03:46:04.931Z,94642
2022-08-05T03:49:30.948Z,94642
2022-08-05T03:54:58.803Z,94639
2022-08-05T03:56:26.873Z,94645
2022-08-05T03:59:46.632Z,94674
2022-08-05T04:03:14.816Z,94708
2022-08-05T04:06:37.015Z,94694
2022-08-05T04:10:03.146Z,94714
2022-08-05T04:13:50.787Z,94719
2022-08-05T04:16:53.052Z,94727
2022-08-05T04:20:18.459Z,94726
2022-08-05T04:23:57.507Z,94740
2022-08-05T04:27:09.236Z,94733
2022-08-05T04:30:34.589Z,94745
2022-08-05T04:34:19.575Z,94741
2022-08-05T04:38:00.833Z,94751
2022-08-05T04:40:50.807Z,94756
2022-08-05T04:44:16.217Z,94769
2022-08-05T04:47:42.816Z,94767
2022-08-05T04:51:10.039Z,94773
2022-08-05T04:54:31.820Z,94775
2022-08-05T04:57:57.113Z,94785
2022-08-05T05:01:33.986Z,94788
2022-08-05T05:04:49.848Z,94789
2022-08-05T05:08:14.283Z,94778
2022-08-05T05:11:42.043Z,94784
2022-08-05T05:15:04.034Z,94783
2022-08-05T05:18:33.057Z,94788
2022-08-05T05:21:55.473Z,94782
2022-08-05T05:25:19.953Z,94786
2022-08-05T05:28:45.392Z,94794
2022-08-05T05:32:12.375Z,94790
2022-08-05T05:35:37.835Z,94797
2022-08-05T05:39:03.698Z,94797
2022-08-05T05:42:26.567Z,94803
2022-08-05T05:45:51.928Z,94798
2022-08-05T05:49:22.378Z,94808
2022-08-05T05:52:42.567Z,94811
2022-08-05T05:56:07.884Z,94826
2022-08-05T05:59:33.199Z,94866
2022-08-05T06:02:58.524Z,94882
2022-08-05T06:06:23.837Z,94885
2022-08-05T06:09:52.848Z,94871
2022-08-05T06:13:14.496Z,94894
2022-08-05T06:16:39.820Z,94886
2022-08-05T06:20:05.112Z,94893
2022-08-05T06:23:31.968Z,94896
2022-08-05T06:26:55.796Z,94887
2022-08-05T06:30:21.486Z,94880
2022-08-05T06:34:06.534Z,94883
2022-08-05T06:37:11.711Z,94887
2022-08-05T06:40:37.030Z,94879
2022-08-05T06:44:02.317Z,94885
2022-08-05T06:47:30.150Z,94884
2022-08-05T06:50:52.941Z,94902
2022-08-05T06:54:18.938Z,94918
2022-08-05T06:57:58.491Z,94915
2022-08-05T07:01:08.941Z,94916
2022-08-05T07:04:34.203Z,94916
2022-08-05T07:07:59.539Z,94916
2022-08-05T07:11:25.345Z,94923
2022-08-05T07:14:50.163Z,94929
2022-08-05T07:18:19.538Z,94922
2022-08-05T07:21:59.696Z,94931
2022-08-05T07:25:22.307Z,94939
2022-08-05T07:28:31.504Z,94936
2022-08-05T07:31:56.845Z,94937
2022-08-05T07:35:56.500Z,94936
2022-08-05T07:38:47.483Z,94924
2022-08-05T07:42:15.348Z,94919
2022-08-05T07:45:56.273Z,94915
2022-08-05T07:49:06.066Z,94932
2022-08-05T07:52:29.047Z,94939
2022-08-05T07:56:05.067Z,94929
2022-08-05T07:59:21.854Z,94929
2022-08-05T08:03:13.455Z,94925
2022-08-05T08:06:10.441Z,94922
2022-08-05T08:09:37.521Z,94922
2022-08-05T08:13:01.515Z,94916
2022-08-05T08:16:34.109Z,94914
2022-08-05T08:20:23.188Z,94923
2022-08-05T08:24:00.905Z,94923
2022-08-05T08:26:42.683Z,94922
2022-08-05T08:30:20.413Z,94913
2022-08-05T08:33:35.863Z,94909
2022-08-05T08:37:03.487Z,94913
2022-08-05T08:40:24.085Z,94925
2022-08-05T08:45:21.908Z,94910
2022-08-05T08:47:22.003Z,94919
2022-08-05T08:51:04.299Z,94909
2022-08-05T08:54:05.445Z,94907
2022-08-05T08:57:42.234Z,94913
2022-08-05T09:00:56.306Z,94909
2022-08-05T09:04:21.529Z,94911
2022-08-05T09:07:57.199Z,94913
2022-08-05T09:11:13.789Z,94916
2022-08-05T09:14:55.201Z,94917
2022-08-05T09:18:03.364Z,94912
2022-08-05T09:22:18.571Z,94912
2022-08-05T09:24:54.098Z,94904
2022-08-05T09:28:20.960Z,94909
2022-08-05T09:32:39.568Z,94914
2022-08-05T09:35:10.190Z,94906
2022-08-05T09:38:35.532Z,94903
2022-08-05T09:42:00.872Z,94901
2022-08-05T09:46:05.551Z,94896
2022-08-05T09:48:55.189Z,94889
2022-08-05T09:52:16.882Z,94892
2022-08-05T09:55:55.891Z,94887
2022-08-05T09:59:07.651Z,94880
2022-08-05T10:02:33.064Z,94877
2022-08-05T10:05:58.375Z,94866
2022-08-05T10:09:25.289Z,94867
2022-08-05T10:12:49.518Z,94872
2022-08-05T10:16:14.352Z,94880
2022-08-05T10:20:02.784Z,94875
2022-08-05T10:23:04.998Z,94874
2022-08-05T10:26:31.573Z,94879
2022-08-05T10:30:06.221Z,94869
2022-08-05T10:33:21.021Z,94868
2022-08-05T10:36:46.343Z,94862
2022-08-05T10:40:48.077Z,94851
2022-08-05T10:44:13.503Z,94856
2022-08-05T10:47:42.005Z,94850
2022-08-05T10:51:21.507Z,94854
2022-08-05T10:54:34.938Z,94860
2022-08-05T10:57:58.005Z,94861
2022-08-05T11:01:28.188Z,94857
2022-08-05T11:04:51.383Z,94869
2022-08-05T11:08:27.610Z,94868
2022-08-05T11:11:44.956Z,94852
2022-08-05T11:15:12.079Z,94855
2022-08-05T11:18:34.197Z,94842
2022-08-05T11:21:59.092Z,94850
2022-08-05T11:26:03.907Z,94854
2022-08-05T11:28:49.789Z,94859
2022-08-05T11:32:15.272Z,94856
2022-08-05T11:35:44.645Z,94846
2022-08-05T11:39:05.976Z,94859
2022-08-05T11:42:31.231Z,94850
2022-08-05T11:46:14.806Z,94852
2022-08-05T11:49:22.312Z,94860
2022-08-05T11:52:48.458Z,94860
2022-08-05T11:56:12.962Z,94858
2022-08-05T11:59:41.474Z,94859
2022-08-05T12:03:03.660Z,94869
2022-08-05T12:06:28.991Z,94865
2022-08-05T12:09:54.335Z,94876
2022-08-05T12:13:27.677Z,94884
2022-08-05T12:16:45.341Z,94892
2022-08-05T12:20:17.515Z,94892
2022-08-05T12:23:36.547Z,94897
2022-08-05T12:27:25.054Z,94895
2022-08-05T12:30:46.671Z,94890
2022-08-05T12:34:14.555Z,94891
2022-08-05T12:37:39.410Z,94888
2022-08-05T12:41:08.622Z,94887
2022-08-05T12:44:34.348Z,94889
2022-08-05T12:48:33.131Z,94882
2022-08-05T12:52:11.258Z,94877
2022-08-05T12:55:25.289Z,94874
2022-08-05T12:58:55.784Z,94877
2022-08-05T13:02:14.703Z,94881
2022-08-05T13:05:40.237Z,94877
2022-08-05T13:09:05.880Z,94880
2022-08-05T13:12:31.515Z,94883
2022-08-05T13:15:59.630Z,94878
2022-08-05T13:19:25.628Z,94876
2022-08-05T13:22:50.992Z,94874
2022-08-05T13:26:17.438Z,94874
2022-08-05T13:29:59.685Z,94866
2022-08-05T13:33:14.398Z,94869
2022-08-05T13:36:38.681Z,94863
2022-08-05T13:40:13.349Z,94876
2022-08-05T13:43:43.909Z,94881
2022-08-05T13:47:05.070Z,94883
2022-08-05T13:50:20.502Z,94876
2022-08-05T13:53:47.405Z,94873
2022-08-05T13:57:48.899Z,94883
2022-08-05T14:01:03.541Z,94884
2022-08-05T14:04:28.876Z,94885
2022-08-05T14:07:56.775Z,94887
2022-08-05T14:11:22.212Z,94890
2022-08-05T14:14:49.303Z,94886
2022-08-05T14:18:24.035Z,94889
2022-08-05T14:22:07.591Z,94889
2022-08-05T14:25:18.936Z,94894
2022-08-05T14:28:51.998Z,94892
2022-08-05T15:08:05.933Z,94900
2022-08-05T15:10:43.099Z,94909
2022-08-05T15:14:08.461Z,94914
2022-08-05T15:17:45.357Z,94900
2022-08-05T15:20:59.267Z,94904
2022-08-05T15:24:24.646Z,94910
2022-08-05T15:27:51.851Z,94904
2022-08-05T15:31:15.394Z,94902
2022-08-05T15:34:40.721Z,94906
2022-08-05T15:38:08.871Z,94914
2022-08-05T15:41:55.318Z,94917
2022-08-05T15:44:56.814Z,94919
2022-08-05T15:48:22.148Z,94928
2022-08-05T15:52:09.790Z,94929
2022-08-05T15:55:15.682Z,94929
2022-08-05T15:58:38.214Z,94928
2022-08-05T16:02:03.605Z,94937
2022-08-05T16:05:28.890Z,94942
2022-08-05T16:08:55.424Z,94942
2022-08-05T16:12:19.869Z,94942
2022-08-05T16:15:44.977Z,94934
2022-08-05T16:19:10.851Z,94942
2022-08-05T16:22:36.267Z,94943
2022-08-05T16:26:01.562Z,94941
2022-08-05T16:29:26.991Z,94957
2022-08-05T16:32:52.484Z,94958
2022-08-05T16:36:20.313Z,94963
2022-08-05T16:40:05.415Z,94964
2022-08-05T16:43:08.606Z,94970
2022-08-05T16:46:33.978Z,94970
2022-08-05T16:49:59.384Z,94978
2022-08-05T16:53:32.615Z,94997
2022-08-05T16:56:52.066Z,95016
2022-08-05T17:00:25.822Z,95025
2022-08-05T17:03:41.811Z,95026
2022-08-05T17:07:11.309Z,95039
2022-08-05T17:10:32.558Z,95044
2022-08-05T17:14:00.760Z,95051
2022-08-05T17:17:23.388Z,95069
2022-08-05T17:20:48.817Z,95073
2022-08-05T17:24:20.621Z,95082
2022-08-05T17:27:39.685Z,95082
2022-08-05T17:31:08.311Z,95075
2022-08-05T17:34:30.455Z,95087
2022-08-05T17:38:00.561Z,95095
2022-08-05T17:41:22.860Z,95101
2022-08-05T17:44:50.633Z,95107
2022-08-05T17:48:11.617Z,95116
2022-08-05T17:51:40.198Z,95122
2022-08-05T17:55:02.950Z,95128
2022-08-05T17:58:32.311Z,95128
2022-08-05T18:01:52.951Z,95135
2022-08-05T18:05:18.399Z,95145
2022-08-05T18:08:44.383Z,95155
2022-08-05T18:12:09.115Z,95162
2022-08-05T18:15:34.565Z,95174
2022-08-05T18:18:59.929Z,95170
2022-08-05T18:22:25.569Z,95171
2022-08-05T18:25:57.937Z,95183
2022-08-05T18:29:40.124Z,95186
2022-08-05T18:32:53.218Z,95186
2022-08-05T18:36:17.492Z,95192
2022-08-05T18:40:31.314Z,95205
2022-08-05T18:43:16.217Z,95213
2022-08-05T18:46:38.037Z,95212
2022-08-05T18:50:03.494Z,95216
2022-08-05T18:53:29.001Z,95207
2022-08-05T18:56:54.420Z,95206
2022-08-05T19:00:20.142Z,95210
2022-08-05T19:03:53.676Z,95200
2022-08-05T19:07:10.670Z,95200
2022-08-05T19:10:36.080Z,95195
2022-08-05T19:14:03.368Z,95211
2022-08-05T19:17:28.563Z,95209
2022-08-05T19:20:52.530Z,95223
2022-08-05T19:24:17.734Z,95242
2022-08-05T19:27:43.204Z,95253
2022-08-05T19:31:08.729Z,95265
2022-08-05T19:34:34.125Z,95264
2022-08-05T19:38:04.846Z,95276
2022-08-05T19:41:34.931Z,95280
2022-08-05T19:44:50.305Z,95299
2022-08-05T19:48:15.706Z,95305
2022-08-05T19:52:06.224Z,95315
2022-08-05T19:55:07.364Z,95337
2022-08-05T19:58:31.783Z,95336
2022-08-05T20:01:57.134Z,95341
2022-08-05T20:05:24.254Z,95343
2022-08-05T20:08:48.922Z,95336
2022-08-05T20:12:13.092Z,95322
2022-08-05T20:15:49.110Z,95320
2022-08-05T20:19:03.739Z,95329
2022-08-05T20:22:29.267Z,95337
2022-08-05T20:25:54.368Z,95354
2022-08-05T20:29:26.996Z,95361
2022-08-05T20:32:45.583Z,95367
2022-08-05T20:36:11.185Z,95386
2022-08-05T20:39:36.787Z,95390
2022-08-05T20:43:00.969Z,95391
2022-08-05T20:46:26.300Z,95388
2022-08-05T20:49:51.621Z,95374
2022-08-05T20:53:37.262Z,95381
2022-08-05T20:56:42.679Z,95366
2022-08-05T21:00:10.910Z,95380
2022-08-05T21:03:34.423Z,95400
2022-08-05T21:06:58.245Z,95415
2022-08-05T21:10:23.602Z,95452
2022-08-05T21:13:55.931Z,95450
2022-08-05T21:17:14.350Z,95419
2022-08-05T21:20:39.842Z,95418
2022-08-05T21:24:05.216Z,95441
2022-08-05T21:27:38.479Z,95434
2022-08-05T21:30:55.970Z,95442
2022-08-05T21:34:22.097Z,95458
2022-08-05T21:37:47.078Z,95467
2022-08-05T21:41:12.134Z,95476
2022-08-05T21:44:37.373Z,95436
2022-08-05T21:48:06.381Z,95434
2022-08-05T21:52:16.829Z,95431
2022-08-05T21:54:55.014Z,95431
2022-08-05T21:58:19.333Z,95447
2022-08-05T22:01:44.049Z,95463
2022-08-05T22:05:09.336Z,95482
2022-08-05T22:08:34.653Z,95481
2022-08-05T22:12:00.031Z,95449
2022-08-05T22:15:57.411Z,95469
2022-08-05T22:18:50.686Z,95455
2022-08-05T22:22:16.042Z,95447
2022-08-05T22:26:09.505Z,95437
2022-08-05T22:29:06.678Z,95448
2022-08-05T22:32:32.041Z,95466
2022-08-05T22:35:57.345Z,95502
2022-08-05T22:39:22.713Z,95513
2022-08-05T22:42:53.271Z,95487
2022-08-05T22:46:23.393Z,95459
2022-08-05T22:50:17.462Z,95441
2022-08-05T22:53:03.957Z,95450
2022-08-05T22:56:29.955Z,95447
2022-08-05T22:59:54.611Z,95447
2022-08-05T23:03:19.933Z,95465
2022-08-05T23:06:45.417Z,95467
2022-08-05T23:10:10.618Z,95471
2022-08-05T23:13:35.972Z,95472
2022-08-05T23:17:01.268Z,95478
2022-08-05T23:20:26.584Z,95485
2022-08-05T23:23:51.917Z,95490
2022-08-05T23:27:17.232Z,95488
2022-08-05T23:30:43.340Z,95482
2022-08-05T23:34:07.845Z,95483
2022-08-05T23:37:34.150Z,95482
2022-08-05T23:40:58.478Z,95498
2022-08-05T23:44:25.229Z,95501
2022-08-05T23:47:49.135Z,95499
2022-08-05T23:51:15.282Z,95506
2022-08-05T23:54:39.776Z,95508
2022-08-05T23:58:05.091Z,95508
